Time;durP1;ratioP1;P1;durP2;ratioP2;P2;SDS_P1;SDS_P2;PMS_P1;PMS_P2;Temp;Humidity;BMP_temperature;BMP_pressure;BME280_temperature;BME280_humidity;BME280_pressure;Samples;Min_cycle;Max_cycle;Signal;HPM_P1;HPM_P2
2022/05/31 00:00:01;;;;;;;4.40;3.67;;;;;;;7.57;57.17;100812.95;1700958;82;21053;-78
2022/05/31 00:02:27;;;;;;;6.70;3.90;;;;;;;7.50;57.15;100813.81;1700838;83;21091;-79
2022/05/31 00:04:54;;;;;;;4.28;3.90;;;;;;;7.45;57.25;100810.38;1714901;83;21036;-79
2022/05/31 00:07:21;;;;;;;5.00;4.15;;;;;;;7.42;57.28;100812.52;1708975;82;21020;-79
2022/05/31 00:09:47;;;;;;;;;;;;;;;7.40;57.38;100806.95;1697683;83;21498;-79
2022/05/31 00:12:15;;;;;;;5.92;4.35;;;;;;;7.42;58.05;100809.09;1709041;83;20415;-79
2022/05/31 00:14:41;;;;;;;4.72;4.08;;;;;;;7.41;57.47;100810.81;1708441;83;21733;-79
2022/05/31 00:17:08;;;;;;;5.25;4.42;;;;;;;7.39;57.52;100810.37;1704275;83;21020;-79
2022/05/31 00:19:35;;;;;;;5.47;3.80;;;;;;;7.38;57.59;100815.95;1695624;83;27095;-79
2022/05/31 00:22:13;;;;;;;;;;;;;;;7.36;57.58;100815.52;1689333;83;21068;-80
2022/05/31 00:24:42;;;;;;;4.70;4.22;;;;;;;7.34;58.16;100817.23;1679039;84;20172;-79
2022/05/31 00:27:12;;;;;;;6.45;4.75;;;;;;;7.35;57.88;100813.81;1679205;84;24728;-80
2022/05/31 00:29:38;;;;;;;5.60;4.05;;;;;;;7.38;57.87;100817.24;1701680;84;21055;-79
2022/05/31 00:32:09;;;;;;;8.58;4.47;;;;;;;7.37;57.80;100817.23;1697897;83;21627;-79
2022/05/31 00:34:39;;;;;;;5.85;4.65;;;;;;;7.31;57.79;100812.52;1691582;84;21012;-79
2022/05/31 00:37:06;;;;;;;5.67;4.62;;;;;;;7.27;57.89;100815.98;1679965;84;21607;-79
2022/05/31 00:39:32;;;;;;;5.08;4.37;;;;;;;7.21;58.01;100817.26;1702014;83;21604;-79
2022/05/31 00:42:12;;;;;;;4.47;4.08;;;;;;;7.17;57.98;100813.39;1704367;84;21060;-79
2022/05/31 00:44:39;;;;;;;4.40;3.92;;;;;;;7.13;58.03;100813.81;1707608;83;21048;-79
2022/05/31 00:47:16;;;;;;;7.12;4.83;;;;;;;7.10;58.08;100819.39;1698499;83;21564;-79
2022/05/31 00:50:03;;;;;;;7.87;4.83;;;;;;;7.07;58.06;100815.52;1706105;82;21493;-79
2022/05/31 00:52:46;;;;;;;4.83;4.35;;;;;;;6.98;58.13;100813.80;1706729;83;22092;-79
2022/05/31 00:55:21;;;;;;;4.58;4.17;;;;;;;6.92;58.12;100818.50;1696606;83;21031;-79
2022/05/31 00:58:11;;;;;;;5.90;4.83;;;;;;;6.87;58.20;100824.48;1684241;83;21576;-79
2022/05/31 01:00:40;;;;;;;7.30;5.85;;;;;;;6.81;58.26;100825.32;1676968;84;21041;-79
2022/05/31 01:03:11;;;;;;;6.10;5.47;;;;;;;6.77;58.38;100826.59;1697554;83;21580;-79
2022/05/31 01:05:37;;;;;;;6.47;5.75;;;;;;;6.72;58.48;100828.32;1707482;83;21088;-79
2022/05/31 01:08:05;;;;;;;7.17;5.65;;;;;;;6.66;58.55;100827.88;1694671;83;21029;-79
2022/05/31 01:10:31;;;;;;;5.37;4.87;;;;;;;6.64;58.63;100827.01;1681288;84;21453;-78
2022/05/31 01:12:59;;;;;;;5.78;5.17;;;;;;;6.64;58.73;100830.44;1680247;84;21567;-78
2022/05/31 01:15:25;;;;;;;5.90;5.28;;;;;;;6.68;58.86;100830.45;1685473;83;21056;-78
2022/05/31 01:17:51;;;;;;;6.20;5.17;;;;;;;6.66;58.76;100833.44;1712542;83;21516;-78
2022/05/31 01:20:21;;;;;;;6.10;4.92;;;;;;;6.66;58.80;100836.01;1691294;83;21115;-78
2022/05/31 01:22:55;;;;;;;5.03;4.40;;;;;;;6.65;58.84;100842.86;1701637;83;21023;-78
2022/05/31 01:25:53;;;;;;;5.50;4.67;;;;;;;6.59;58.78;100841.13;1712164;82;20969;-78
2022/05/31 01:28:58;;;;;;;4.62;4.20;;;;;;;6.52;58.71;100840.66;1700075;83;21576;-78
2022/05/31 01:31:39;;;;;;;6.35;4.17;;;;;;;6.45;58.83;100841.48;1694954;82;21067;-78
2022/05/31 01:34:20;;;;;;;6.17;4.62;;;;;;;6.41;58.93;100848.75;1712212;82;21492;-77
2022/05/31 01:36:55;;;;;;;5.72;4.92;;;;;;;6.42;59.03;100850.89;1711804;83;21544;-78
2022/05/31 01:39:41;;;;;;;5.45;4.47;;;;;;;6.40;59.05;100851.31;1686384;83;20885;-78
2022/05/31 01:42:37;;;;;;;5.08;4.53;;;;;;;6.37;59.06;100852.58;1685234;84;20890;-77
2022/05/31 01:45:16;;;;;;;5.33;4.83;;;;;;;6.29;59.03;100852.11;1685473;83;21370;-77
2022/05/31 01:47:43;;;;;;;5.50;5.00;;;;;;;6.22;59.11;100851.67;1705851;83;21013;-78
2022/05/31 01:50:18;;;;;;;5.10;4.20;;;;;;;6.17;59.14;100858.49;1712104;82;21048;-78
2022/05/31 01:52:47;;;;;;;5.25;4.78;;;;;;;6.15;59.23;100860.62;1712149;82;21088;-78
2022/05/31 01:55:14;;;;;;;4.53;4.12;;;;;;;6.13;59.26;100864.45;1685751;83;20902;-78
2022/05/31 01:57:43;;;;;;;4.85;4.45;;;;;;;6.11;59.31;100862.73;1685056;83;20861;-77
2022/05/31 02:00:12;;;;;;;4.72;4.10;;;;;;;6.09;59.40;100861.44;1724883;82;20858;-78
2022/05/31 02:02:39;;;;;;;5.12;4.58;;;;;;;6.07;59.38;100862.28;1694599;81;20953;-78
2022/05/31 02:05:06;;;;;;;4.40;4.00;;;;;;;6.03;59.42;100873.38;1694449;83;21469;-78
2022/05/31 02:07:33;;;;;;;5.92;5.00;;;;;;;5.96;59.45;100870.77;1700968;83;20854;-78
2022/05/31 02:10:00;;;;;;;6.72;5.45;;;;;;;5.95;59.57;100869.05;1708975;82;20882;-78
2022/05/31 02:12:30;;;;;;;5.15;4.65;;;;;;;5.97;59.59;100868.63;1699248;83;20901;-78
2022/05/31 02:14:58;;;;;;;4.83;4.30;;;;;;;5.94;59.64;100869.89;1701213;82;20909;-78
2022/05/31 02:17:25;;;;;;;12.80;5.80;;;;;;;5.94;59.69;100874.16;1715415;82;20901;-78
2022/05/31 02:19:51;;;;;;;6.62;5.72;;;;;;;5.94;59.75;100869.03;1713698;82;20925;-78
2022/05/31 02:22:22;;;;;;;10.03;5.30;;;;;;;5.93;59.78;100866.89;1697319;82;20921;-78
2022/05/31 02:24:49;;;;;;;5.20;4.60;;;;;;;5.95;59.87;100871.61;1685951;83;20946;-78
2022/05/31 02:27:16;;;;;;;5.03;4.62;;;;;;;5.92;59.86;100875.44;1730640;82;20878;-78
2022/05/31 02:29:43;;;;;;;5.40;4.90;;;;;;;5.90;59.98;100880.13;1734740;80;20896;-77
2022/05/31 02:32:14;;;;;;;7.42;5.70;;;;;;;5.89;60.10;100884.82;1685349;83;20940;-78
2022/05/31 02:34:44;;;;;;;5.97;4.92;;;;;;;5.91;60.13;100878.00;1685129;85;20874;-78
2022/05/31 02:37:12;;;;;;;5.10;4.60;;;;;;;5.90;60.16;100882.69;1694818;83;20921;-78
2022/05/31 02:39:39;;;;;;;4.47;3.87;;;;;;;5.88;60.05;100886.50;1686582;82;20901;-78
2022/05/31 02:42:07;;;;;;;7.87;4.53;;;;;;;5.84;60.05;100887.74;1685419;83;21462;-78
2022/05/31 02:44:34;;;;;;;4.42;3.92;;;;;;;5.78;60.07;100891.55;1685309;85;20977;-78
2022/05/31 02:47:01;;;;;;;6.20;4.37;;;;;;;5.74;60.11;100891.94;1692778;83;20894;-78
2022/05/31 02:49:28;;;;;;;5.83;4.87;;;;;;;5.72;60.15;100892.81;1713249;82;20925;-78
2022/05/31 02:51:56;;;;;;;5.12;4.62;;;;;;;5.68;60.18;100894.48;1700222;82;20889;-79
2022/05/31 02:54:23;;;;;;;5.35;4.85;;;;;;;5.67;60.25;100894.48;1695963;84;20894;-78
2022/05/31 02:56:49;;;;;;;4.90;4.50;;;;;;;5.63;60.28;100905.13;1675090;83;20955;-78
2022/05/31 02:59:15;;;;;;;6.05;5.17;;;;;;;5.62;60.34;100898.28;1694202;83;20985;-77
2022/05/31 03:01:44;;;;;;;5.92;4.75;;;;;;;5.61;60.38;100891.44;1692766;82;20935;-77
2022/05/31 03:04:12;;;;;;;5.37;4.85;;;;;;;5.61;60.43;100896.56;1699697;83;20889;-77
2022/05/31 03:06:40;;;;;;;4.25;3.85;;;;;;;5.60;60.52;100893.56;1712832;82;20921;-77
2022/05/31 03:09:07;;;;;;;4.58;4.00;;;;;;;5.63;60.58;100893.59;1702222;82;21307;-78
2022/05/31 03:11:53;;;;;;;4.55;4.15;;;;;;;5.66;60.60;100889.77;1688325;83;20961;-78
2022/05/31 03:14:28;;;;;;;5.20;4.00;;;;;;;5.69;60.65;100894.92;1714459;83;20890;-79
2022/05/31 03:17:08;;;;;;;4.95;4.55;;;;;;;5.67;60.71;100892.77;1689637;83;20886;-79
2022/05/31 03:19:40;;;;;;;5.45;4.95;;;;;;;5.69;60.77;100897.91;1684201;83;20921;-79
2022/05/31 03:22:12;;;;;;;5.28;4.47;;;;;;;5.73;60.84;100902.19;1712760;83;21354;-79
2022/05/31 03:24:49;;;;;;;4.87;4.47;;;;;;;5.75;60.88;100901.36;1713963;82;20870;-78
2022/05/31 03:27:16;;;;;;;5.03;4.60;;;;;;;5.80;60.97;100903.54;1701260;82;21359;-79
2022/05/31 03:29:45;;;;;;;5.00;4.60;;;;;;;5.89;61.02;100907.92;1714087;82;21497;-79
2022/05/31 03:32:13;;;;;;;5.17;4.58;;;;;;;5.93;61.15;100900.68;1701292;82;20925;-78
2022/05/31 03:34:39;;;;;;;5.45;4.95;;;;;;;6.01;61.17;100896.89;1695150;83;21555;-78
2022/05/31 03:37:06;;;;;;;4.47;4.05;;;;;;;6.05;61.21;100897.34;1713746;82;20945;-78
2022/05/31 03:39:32;;;;;;;5.53;4.65;;;;;;;6.11;61.28;100893.54;1705311;82;20901;-78
2022/05/31 03:41:58;;;;;;;5.05;4.55;;;;;;;6.19;61.34;100894.45;1713907;82;20925;-78
2022/05/31 03:44:25;;;;;;;5.03;4.58;;;;;;;6.27;61.40;100900.03;1713176;82;20913;-78
2022/05/31 03:46:52;;;;;;;8.40;4.70;;;;;;;6.30;61.47;100896.20;1714118;82;20921;-78
2022/05/31 03:49:18;;;;;;;4.75;4.35;;;;;;;6.35;61.49;100898.80;1700865;82;20956;-78
2022/05/31 03:51:44;;;;;;;5.40;4.90;;;;;;;6.41;61.52;100908.25;1710601;82;21027;-78
2022/05/31 03:54:12;;;;;;;5.42;4.92;;;;;;;6.47;61.61;100901.86;1712417;82;21028;-78
2022/05/31 03:56:38;;;;;;;5.80;5.30;;;;;;;6.53;61.64;100909.17;1706485;82;21041;-79
2022/05/31 03:59:05;;;;;;;5.72;4.95;;;;;;;6.60;61.69;100912.63;1697841;83;21016;-79
2022/05/31 04:01:32;;;;;;;6.42;5.83;;;;;;;6.69;61.76;100914.39;1707650;82;21030;-80
2022/05/31 04:03:59;;;;;;;6.72;5.22;;;;;;;6.83;61.96;100916.56;1710857;82;21040;-79
2022/05/31 04:06:26;;;;;;;5.60;5.10;;;;;;;7.04;62.15;100915.36;1711500;82;20949;-79
2022/05/31 04:08:54;;;;;;;6.22;5.35;;;;;;;7.28;62.20;100911.55;1708560;83;21039;-80
2022/05/31 04:11:21;;;;;;;6.30;5.70;;;;;;;7.49;62.20;100912.02;1697004;83;21104;-81
2022/05/31 04:13:47;;;;;;;7.03;6.08;;;;;;;7.66;62.22;100915.89;1699394;82;21052;-81
2022/05/31 04:16:18;;;;;;;6.95;6.25;;;;;;;7.80;62.25;100912.86;1644947;85;21058;-80
2022/05/31 04:18:44;;;;;;;6.87;6.00;;;;;;;7.93;62.28;100919.73;1695754;83;21067;-80
2022/05/31 04:21:16;;;;;;;8.50;6.25;;;;;;;8.04;62.36;100921.45;1708555;82;21096;-80
2022/05/31 04:26:33;;;;;;;6.72;5.28;;;;;;;8.21;62.48;100924.44;1693669;83;21115;-80
2022/05/31 04:29:00;;;;;;;8.28;6.05;;;;;;;8.33;62.57;100927.42;1693141;82;21119;-80
2022/05/31 04:31:27;;;;;;;6.00;5.47;;;;;;;8.44;62.64;100926.12;1700144;82;21064;-80
2022/05/31 04:33:53;;;;;;;6.90;5.80;;;;;;;8.54;62.72;100922.66;1698569;83;21068;-79
2022/05/31 04:36:21;;;;;;;7.42;5.87;;;;;;;8.60;62.76;100920.92;1706330;82;21123;-79
2022/05/31 04:38:48;;;;;;;9.15;5.97;;;;;;;8.69;62.85;100925.19;1704210;82;21096;-79
2022/05/31 04:41:23;;;;;;;5.92;5.42;;;;;;;8.78;62.91;100927.74;1701788;82;21095;-79
2022/05/31 04:43:53;;;;;;;5.95;5.30;;;;;;;8.88;62.98;100921.66;1710323;82;21088;-80
2022/05/31 04:46:22;;;;;;;6.97;6.12;;;;;;;8.99;63.02;100924.19;1701318;82;21072;-80
2022/05/31 04:48:49;;;;;;;7.15;5.83;;;;;;;9.09;63.09;100920.70;1699902;82;21048;-79
2022/05/31 04:51:16;;;;;;;7.33;6.17;;;;;;;9.18;63.14;100929.69;1697316;82;21041;-79
2022/05/31 04:53:43;;;;;;;;;;;;;;;9.29;63.28;100930.48;1691146;82;21022;-79
2022/05/31 04:56:13;;;;;;;7.60;5.37;;;;;;;9.43;64.00;100926.94;1707654;82;20215;-79
2022/05/31 04:58:39;;;;;;;6.67;5.15;;;;;;;9.61;63.46;100928.11;1691623;83;21222;-78
2022/05/31 05:01:06;;;;;;;6.08;4.90;;;;;;;9.99;63.63;100927.78;1681204;83;21338;-78
2022/05/31 05:03:36;;;;;;;5.95;5.05;;;;;;;10.61;63.77;100928.47;1674993;83;20930;-78
2022/05/31 05:06:06;;;;;;;7.53;4.97;;;;;;;11.39;63.93;100932.64;1686237;83;21025;-78
2022/05/31 05:08:34;;;;;;;5.22;4.10;;;;;;;12.19;63.98;100931.78;1688585;83;20946;-79
2022/05/31 05:11:02;;;;;;;5.00;3.87;;;;;;;13.02;63.94;100937.48;1691244;82;20931;-79
2022/05/31 05:13:29;;;;;;;4.28;3.77;;;;;;;13.80;63.79;100939.64;1698591;82;20976;-79
2022/05/31 05:15:56;;;;;;;3.90;3.55;;;;;;;14.46;63.55;100942.30;1675597;83;20981;-79
2022/05/31 05:18:23;;;;;;;3.55;3.25;;;;;;;15.15;63.50;100935.09;1681979;82;20906;-79
2022/05/31 05:20:50;;;;;;;8.78;3.10;;;;;;;15.89;63.20;100939.73;1675190;83;20914;-79
2022/05/31 05:23:16;;;;;;;5.83;3.27;;;;;;;16.38;62.90;100937.61;1675265;83;21424;-79
2022/05/31 05:25:51;;;;;;;4.00;3.60;;;;;;;16.86;62.90;100937.63;1688182;83;21067;-79
2022/05/31 05:31:04;;;;;;;3.20;3.00;;;;;;;17.89;62.62;100936.23;1665037;84;20871;-79
2022/05/31 05:33:31;;;;;;;3.47;3.17;;;;;;;18.46;62.52;100932.91;1687207;83;20969;-79
2022/05/31 05:35:57;;;;;;;3.27;2.95;;;;;;;19.00;62.57;100926.98;1690503;82;20940;-79
2022/05/31 05:38:27;;;;;;;3.33;3.02;;;;;;;19.62;62.50;100933.67;1698706;82;20982;-79
2022/05/31 05:40:53;;;;;;;4.17;2.52;;;;;;;19.89;62.17;100929.28;1681187;83;21321;-80
2022/05/31 05:43:19;;;;;;;3.22;2.60;;;;;;;20.32;62.24;100928.80;1680445;83;20963;-79
2022/05/31 05:45:46;;;;;;;3.52;2.55;;;;;;;20.71;62.34;100924.59;1685122;83;21495;-79
2022/05/31 05:48:12;;;;;;;3.50;2.72;;;;;;;21.22;62.35;100928.44;1709604;83;20948;-80
2022/05/31 05:50:38;;;;;;;3.35;2.60;;;;;;;21.76;62.15;100929.73;1674281;83;20978;-80
2022/05/31 05:53:08;;;;;;;2.92;2.60;;;;;;;22.15;61.96;100933.15;1673337;83;21065;-80
2022/05/31 05:55:36;;;;;;;2.40;2.15;;;;;;;22.49;61.56;100929.32;1689219;83;21069;-80
2022/05/31 05:58:07;;;;;;;2.47;2.22;;;;;;;22.86;61.08;100936.34;1631746;82;5001081;-79
2022/05/31 06:00:32;;;;;;;2.85;1.87;;;;;;;22.97;60.93;100933.84;1695883;82;20895;-79
2022/05/31 06:03:25;;;;;;;2.15;1.98;;;;;;;23.14;60.76;100934.95;1703586;82;20953;-79
2022/05/31 06:05:52;;;;;;;2.77;1.80;;;;;;;23.29;60.31;100938.42;1710921;81;20989;-79
2022/05/31 06:08:22;;;;;;;;;;;;;;;23.32;60.08;100937.75;1695615;82;21069;-79
2022/05/31 06:11:12;;;;;;;2.52;1.87;;;;;;;23.59;58.94;100944.84;1646321;85;20207;-80
2022/05/31 06:13:52;;;;;;;1.98;1.77;;;;;;;23.66;59.40;100945.66;1689637;82;21132;-81
2022/05/31 06:16:22;;;;;;;1.67;1.35;;;;;;;23.99;59.48;100947.00;1689317;83;20963;-80
2022/05/31 06:18:56;;;;;;;4.28;2.08;;;;;;;24.29;58.74;100948.95;1691084;83;20954;-80
2022/05/31 06:21:25;;;;;;;2.47;1.67;;;;;;;24.36;58.32;100946.26;1692429;83;20950;-80
2022/05/31 06:23:53;;;;;;;5.10;2.00;;;;;;;24.31;57.50;100944.88;1693938;83;20954;-80
2022/05/31 06:26:19;;;;;;;2.25;1.65;;;;;;;24.17;57.21;100947.09;1664970;85;21019;-80
2022/05/31 06:28:46;;;;;;;3.67;2.33;;;;;;;24.20;56.90;100952.17;1692079;82;20978;-80
2022/05/31 06:31:12;;;;;;;1.45;1.27;;;;;;;24.21;56.49;100951.70;1670546;84;20902;-80
2022/05/31 06:33:39;;;;;;;1.47;1.15;;;;;;;24.19;55.96;100949.16;1691602;83;20918;-80
2022/05/31 06:36:07;;;;;;;2.45;1.30;;;;;;;24.00;55.70;100946.91;1692836;83;20954;-80
2022/05/31 06:38:35;;;;;;;2.52;1.22;;;;;;;24.00;55.32;100952.66;1688500;82;21100;-80
2022/05/31 06:41:02;;;;;;;1.75;1.20;;;;;;;23.78;55.04;100955.91;1692988;83;21080;-80
2022/05/31 06:43:28;;;;;;;2.15;1.10;;;;;;;23.82;54.34;100952.59;1696370;83;21121;-80
2022/05/31 06:45:55;;;;;;;2.65;1.20;;;;;;;23.53;54.18;100931.56;1681417;83;21113;-80
2022/05/31 06:48:21;;;;;;;1.87;1.30;;;;;;;23.61;53.93;100950.88;1691099;83;21037;-80
2022/05/31 06:50:48;;;;;;;1.80;1.12;;;;;;;23.57;53.54;100954.19;1696096;84;21993;-80
2022/05/31 06:58:46;;;;;;;1.72;1.00;;;;;;;23.45;52.40;100952.30;1687666;83;21045;-79
2022/05/31 07:01:12;;;;;;;2.37;1.37;;;;;;;23.37;52.21;100954.14;1664162;84;21077;-79
2022/05/31 07:03:38;;;;;;;2.10;1.30;;;;;;;23.42;51.93;100953.81;1653847;84;21090;-79
2022/05/31 07:06:05;;;;;;;19.48;18.23;;;;;;;23.22;51.48;100954.27;1667411;84;21502;-80
2022/05/31 07:08:33;;;;;;;8.20;7.65;;;;;;;22.50;51.27;100956.52;1665872;84;21062;-80
2022/05/31 07:11:01;;;;;;;2.65;2.37;;;;;;;22.50;51.27;100956.52;1626765;86;21556;-80
2022/05/31 07:13:27;;;;;;;1.32;1.10;;;;;;;22.59;51.13;100955.97;1611017;86;21082;-80
2022/05/31 07:15:54;;;;;;;3.52;1.17;;;;;;;22.71;50.91;100967.94;1652219;84;21566;-80
2022/05/31 07:18:20;;;;;;;2.80;1.07;;;;;;;22.86;50.62;100958.28;1662083;84;21125;-80
2022/05/31 07:20:46;;;;;;;1.47;1.15;;;;;;;23.00;50.55;100954.76;1632382;85;21066;-80
2022/05/31 07:23:13;;;;;;;2.25;1.15;;;;;;;23.21;50.30;100970.56;1634476;86;21115;-80
2022/05/31 07:25:40;;;;;;;2.25;1.27;;;;;;;23.28;50.06;100965.28;1658981;83;21086;-80
2022/05/31 07:28:06;;;;;;;1.05;0.95;;;;;;;23.19;49.65;100970.28;1641309;85;21065;-80
2022/05/31 07:30:34;;;;;;;1.10;1.00;;;;;;;22.71;49.39;100966.63;1641301;85;20978;-80
2022/05/31 07:33:01;;;;;;;1.30;1.10;;;;;;;22.31;49.22;100965.55;1650232;85;21061;-80
2022/05/31 07:35:28;;;;;;;2.87;1.10;;;;;;;22.10;49.25;100972.92;1622081;86;21050;-80
2022/05/31 07:37:54;;;;;;;1.75;1.37;;;;;;;21.89;48.94;100977.23;1646927;85;21630;-80
2022/05/31 07:40:21;;;;;;;1.95;1.45;;;;;;;21.50;48.69;100969.36;1663139;84;21093;-80
2022/05/31 07:42:50;;;;;;;1.42;1.17;;;;;;;21.10;48.42;100973.31;1659447;83;21056;-80
2022/05/31 07:45:16;;;;;;;2.33;1.30;;;;;;;20.80;48.38;100964.81;1661793;84;21001;-80
2022/05/31 07:47:42;;;;;;;1.47;1.17;;;;;;;20.63;48.31;100965.34;1668870;84;21064;-80
2022/05/31 07:50:09;;;;;;;1.30;1.20;;;;;;;20.70;48.39;100966.72;1653192;84;21518;-80
2022/05/31 07:52:35;;;;;;;;;;;;;;;20.62;47.96;100970.21;1666028;83;20995;-80
2022/05/31 07:55:02;;;;;;;1.00;0.95;;;;;;;20.58;47.97;100966.05;1662741;83;20201;-79
2022/05/31 08:00:15;;;;;;;1.40;1.10;;;;;;;20.35;47.67;100968.50;1660140;84;21692;-79
2022/05/31 08:02:41;;;;;;;1.85;1.20;;;;;;;20.13;47.61;100966.98;1701559;81;21000;-79
2022/05/31 08:05:08;;;;;;;1.37;1.05;;;;;;;20.08;47.44;100970.77;1702765;81;21549;-79
2022/05/31 08:07:35;;;;;;;1.00;1.00;;;;;;;20.13;47.57;100968.77;1722751;81;21553;-80
2022/05/31 08:10:01;;;;;;;2.40;1.10;;;;;;;20.14;47.33;100963.89;1708533;81;21097;-80
2022/05/31 08:12:28;;;;;;;2.55;1.60;;;;;;;19.99;47.17;100968.59;1725590;81;26512;-80
2022/05/31 08:15:01;;;;;;;1.80;1.40;;;;;;;19.79;47.19;100959.06;1701926;81;21624;-80
2022/05/31 08:17:28;;;;;;;1.20;0.75;;;;;;;19.66;47.14;100969.80;1720486;81;21577;-80
2022/05/31 08:19:55;;;;;;;1.67;0.80;;;;;;;19.49;46.96;100976.66;1704740;81;21589;-80
2022/05/31 08:22:22;;;;;;;1.02;0.85;;;;;;;19.18;46.83;100973.33;1705445;81;22342;-80
2022/05/31 08:24:49;;;;;;;1.40;0.90;;;;;;;18.94;46.82;100973.13;1687252;82;21128;-79
2022/05/31 08:27:15;;;;;;;;;;;;;;;18.80;46.83;100971.58;1708602;81;20985;-79
2022/05/31 08:29:44;;;;;;;2.50;1.20;;;;;;;18.73;46.81;100967.52;1719363;81;20617;-79
2022/05/31 08:32:10;;;;;;;0.60;0.60;;;;;;;18.81;46.82;100966.27;1729983;81;21434;-79
2022/05/31 08:34:36;;;;;;;0.88;0.60;;;;;;;18.80;46.61;100960.63;1692420;82;21626;-79
2022/05/31 08:37:03;;;;;;;2.05;0.60;;;;;;;18.68;46.61;100963.83;1660664;84;21557;-79
2022/05/31 08:39:29;;;;;;;2.25;1.00;;;;;;;18.56;46.47;100967.41;1663205;83;21132;-79
2022/05/31 08:42:36;;;;;;;1.90;0.70;;;;;;;18.41;46.49;100964.98;1671078;83;21547;-79
2022/05/31 08:45:13;;;;;;;2.62;1.07;;;;;;;18.36;46.52;100954.70;1695807;82;21399;-79
2022/05/31 08:47:59;;;;;;;1.50;0.75;;;;;;;18.39;46.46;100955.88;1686189;84;21375;-79
2022/05/31 08:53:40;;;;;;;1.37;0.77;;;;;;;18.28;46.38;100960.72;1666849;84;21494;-79
2022/05/31 08:59:10;;;;;;;1.70;0.80;;;;;;;18.16;46.31;100967.36;1694017;83;21459;-80
2022/05/31 09:01:52;;;;;;;;;;;;;;;18.14;46.34;100965.72;1696637;82;21387;-80
2022/05/31 09:04:23;;;;;;;0.95;0.70;;;;;;;18.11;46.36;100962.77;1687757;83;20706;-80
2022/05/31 09:07:01;;;;;;;1.72;0.90;;;;;;;18.08;46.29;100957.66;1672093;83;21383;-80
2022/05/31 09:09:51;;;;;;;1.55;0.80;;;;;;;18.02;46.30;100961.84;1657935;83;21353;-80
2022/05/31 09:12:38;;;;;;;2.22;0.75;;;;;;;17.99;46.35;100958.04;1675840;83;21537;-80
2022/05/31 09:15:19;;;;;;;1.45;0.80;;;;;;;18.01;46.37;100956.21;1655923;83;20886;-80
2022/05/31 09:18:10;;;;;;;1.72;1.07;;;;;;;18.12;46.41;100952.69;1660569;84;21558;-80
2022/05/31 09:20:46;;;;;;;1.55;0.85;;;;;;;18.25;46.37;100956.08;1633236;85;20934;-80
2022/05/31 09:23:28;;;;;;;2.75;0.93;;;;;;;18.31;46.30;100952.73;1700173;83;21787;-80
2022/05/31 09:26:15;;;;;;;1.30;0.80;;;;;;;18.39;46.32;100955.88;1685096;83;20911;-80
2022/05/31 09:29:02;;;;;;;3.87;0.70;;;;;;;18.46;46.28;100952.09;1699686;83;21391;-80
2022/05/31 09:31:50;;;;;;;0.78;0.60;;;;;;;18.47;46.24;100959.48;1694023;83;21502;-80
2022/05/31 09:34:37;;;;;;;1.98;0.80;;;;;;;18.47;46.12;100953.79;1699033;83;21363;-80
2022/05/31 09:37:34;;;;;;;1.15;0.68;;;;;;;18.41;46.08;100962.36;1701178;83;21774;-80
2022/05/31 09:40:37;;;;;;;1.07;0.60;;;;;;;18.36;46.15;100953.85;1688029;83;20910;-80
2022/05/31 09:43:26;;;;;;;2.45;0.70;;;;;;;18.38;46.13;100950.71;1699342;83;21378;-80
2022/05/31 09:46:10;;;;;;;1.70;0.55;;;;;;;18.49;46.22;100951.10;1657300;84;20957;-80
2022/05/31 09:48:46;;;;;;;0.95;0.55;;;;;;;18.65;46.18;100948.24;1684762;83;20912;-79
2022/05/31 09:51:24;;;;;;;4.17;0.68;;;;;;;18.80;46.11;100947.99;1689038;83;21475;-79
2022/05/31 09:59:27;;;;;;;1.70;0.78;;;;;;;19.20;45.86;100943.56;1666162;84;21908;-79
2022/05/31 10:01:54;;;;;;;1.90;0.82;;;;;;;19.24;45.79;100949.88;1688883;83;20918;-79
2022/05/31 10:04:27;;;;;;;2.42;1.07;;;;;;;19.16;45.58;100945.02;1696292;83;21831;-79
2022/05/31 10:07:03;;;;;;;2.25;1.07;;;;;;;19.10;45.70;100951.00;1690423;83;20910;-79
2022/05/31 10:09:43;;;;;;;1.85;0.80;;;;;;;19.16;45.81;100945.48;1697994;83;21400;-79
2022/05/31 10:12:15;;;;;;;1.82;0.78;;;;;;;19.19;45.74;100941.41;1699175;83;20942;-79
2022/05/31 10:14:47;;;;;;;2.40;0.90;;;;;;;19.26;45.68;100942.79;1663294;84;21409;-80
2022/05/31 10:17:42;;;;;;;1.17;0.62;;;;;;;19.28;45.61;100940.95;1673834;83;20922;-79
2022/05/31 10:20:22;;;;;;;1.45;0.72;;;;;;;19.31;45.45;100932.94;1693136;83;20886;-79
2022/05/31 10:23:13;;;;;;;1.05;0.68;;;;;;;19.35;45.38;100942.36;1693731;83;20883;-79
2022/05/31 10:25:49;;;;;;;1.55;0.70;;;;;;;19.41;45.37;100935.98;1630440;86;20967;-79
2022/05/31 10:28:33;;;;;;;1.82;0.90;;;;;;;19.39;45.23;100939.13;1621422;86;21037;-79
2022/05/31 10:31:16;;;;;;;1.25;0.80;;;;;;;19.39;45.24;100937.82;1663805;84;20919;-79
2022/05/31 10:33:52;;;;;;;1.72;0.80;;;;;;;19.32;45.10;100937.72;1665108;84;20902;-79
2022/05/31 10:36:23;;;;;;;1.07;0.65;;;;;;;19.16;45.07;100932.37;1670826;83;20914;-79
2022/05/31 10:38:52;;;;;;;0.85;0.65;;;;;;;19.10;45.13;100923.48;1662012;84;20902;-80
2022/05/31 10:41:30;;;;;;;3.55;0.95;;;;;;;19.14;45.14;100927.20;1686526;84;20957;-80
2022/05/31 10:44:08;;;;;;;2.95;0.85;;;;;;;19.13;44.91;100925.50;1687534;84;20946;-80
2022/05/31 10:46:37;;;;;;;1.32;0.65;;;;;;;19.04;44.83;100918.52;1677645;84;21055;-80
2022/05/31 10:49:18;;;;;;;1.50;0.70;;;;;;;18.93;44.78;100913.77;1679164;84;20998;-80
2022/05/31 10:52:23;;;;;;;4.58;0.68;;;;;;;18.94;44.75;100909.38;1679647;83;20989;-80
2022/05/31 10:55:30;;;;;;;3.00;0.93;;;;;;;18.99;44.57;100900.84;1676232;84;20938;-80
2022/05/31 10:58:11;;;;;;;2.05;0.78;;;;;;;19.04;44.57;100904.11;1726753;81;20969;-79
2022/05/31 11:00:57;;;;;;;1.57;0.75;;;;;;;19.11;44.29;100908.14;1726217;81;20851;-79
2022/05/31 11:03:40;;;;;;;1.45;0.85;;;;;;;19.28;44.21;100902.92;1729213;81;20871;-79
2022/05/31 11:06:24;;;;;;;1.05;0.65;;;;;;;19.40;44.31;100905.42;1700703;82;20918;-80
2022/05/31 11:11:59;;;;;;;4.03;1.92;;;;;;;19.77;44.20;100905.34;1717530;81;20874;-80
2022/05/31 11:14:53;;;;;;;0.80;0.57;;;;;;;19.89;44.03;100901.73;1722319;81;20967;-80
2022/05/31 11:17:57;;;;;;;2.25;0.80;;;;;;;20.02;43.99;100901.03;1723535;81;20874;-80
2022/05/31 11:20:31;;;;;;;2.00;0.60;;;;;;;20.18;43.90;100898.95;1730440;80;20858;-80
2022/05/31 11:23:30;;;;;;;0.90;0.60;;;;;;;20.26;43.81;100908.59;1711754;80;20913;-80
2022/05/31 11:26:07;;;;;;;0.95;0.60;;;;;;;20.30;43.66;100889.09;1725647;81;21037;-80
2022/05/31 11:28:58;;;;;;;1.45;0.75;;;;;;;20.32;43.61;100885.45;1724939;80;21111;-80
2022/05/31 11:31:53;;;;;;;2.47;0.82;;;;;;;20.36;43.49;100894.87;1694257;82;21544;-79
2022/05/31 11:34:34;;;;;;;1.92;0.85;;;;;;;20.39;43.39;100888.66;1720035;80;21311;-77
2022/05/31 11:37:27;;;;;;;3.05;0.53;;;;;;;20.37;43.34;100899.67;1722595;81;21064;-81
2022/05/31 11:40:13;;;;;;;1.35;0.72;;;;;;;20.37;43.19;100897.04;1701410;80;21065;-83
2022/05/31 11:43:09;;;;;;;0.70;0.50;;;;;;;20.35;43.04;100890.55;1725833;81;21049;-83
2022/05/31 11:45:48;;;;;;;1.07;0.50;;;;;;;20.29;42.99;100893.96;1694963;82;21109;-83
2022/05/31 11:49:02;;;;;;;1.95;0.90;;;;;;;20.36;42.93;100893.56;1735961;80;20965;-83
2022/05/31 11:51:33;;;;;;;1.15;0.75;;;;;;;20.47;42.85;100893.04;1731376;81;21120;-83
2022/05/31 11:54:14;;;;;;;2.77;1.00;;;;;;;20.53;42.58;100895.34;1724474;80;21346;-83
2022/05/31 11:56:54;;;;;;;2.47;0.70;;;;;;;20.55;42.28;100896.58;1715350;80;21083;-84
2022/05/31 11:59:55;;;;;;;1.67;0.80;;;;;;;20.42;42.36;100892.43;1721671;80;21091;-85
2022/05/31 12:02:51;;;;;;;1.60;0.70;;;;;;;20.46;42.38;100881.68;1742085;80;21046;-85
2022/05/31 12:05:31;;;;;;;1.87;0.72;;;;;;;20.48;42.39;100881.14;1717346;82;21640;-85
2022/05/31 12:08:41;;;;;;;1.60;0.75;;;;;;;20.47;42.12;100880.75;1689515;83;21511;-85
2022/05/31 12:11:16;;;;;;;3.00;0.90;;;;;;;20.39;42.00;100882.93;1627244;87;21103;-85
2022/05/31 12:13:45;;;;;;;0.88;0.62;;;;;;;20.26;41.91;100881.88;1625907;86;21090;-85
2022/05/31 12:16:13;;;;;;;1.12;0.88;;;;;;;20.19;41.76;100881.80;1601247;87;21181;-85
2022/05/31 12:19:06;;;;;;;1.10;0.60;;;;;;;20.15;41.87;100877.63;1572632;90;21603;-83
2022/05/31 12:21:53;;;;;;;0.78;0.57;;;;;;;20.25;41.71;100876.23;1573282;89;21116;-83
2022/05/31 12:24:31;;;;;;;2.95;0.82;;;;;;;20.23;41.46;100871.98;1615267;87;21158;-82